sensor_id;sensor_type;location;lat;lon;timestamp;pressure;altitude;pressure_sealevel;temperature;humidity
70248;BME280;57641;51.416;5.506;2022-11-02T00:00:39;101498.81;;;18.10;50.46
70248;BME280;57641;51.416;5.506;2022-11-02T00:03:05;101501.13;;;18.28;50.21
70248;BME280;57641;51.416;5.506;2022-11-02T00:05:31;101503.06;;;18.20;50.12
70248;BME280;57641;51.416;5.506;2022-11-02T00:07:57;101506.31;;;18.30;50.13
70248;BME280;57641;51.416;5.506;2022-11-02T00:10:23;101503.00;;;18.28;50.11
70248;BME280;57641;51.416;5.506;2022-11-02T00:12:50;101504.59;;;18.22;50.07
70248;BME280;57641;51.416;5.506;2022-11-02T00:15:16;101502.72;;;18.23;50.33
70248;BME280;57641;51.416;5.506;2022-11-02T00:17:45;101507.28;;;18.22;50.21
70248;BME280;57641;51.416;5.506;2022-11-02T00:20:13;101510.34;;;18.34;50.00
70248;BME280;57641;51.416;5.506;2022-11-02T00:22:40;101514.34;;;18.38;50.01
70248;BME280;57641;51.416;5.506;2022-11-02T00:25:08;101509.81;;;18.24;50.14
70248;BME280;57641;51.416;5.506;2022-11-02T00:27:36;101508.38;;;18.42;49.87
70248;BME280;57641;51.416;5.506;2022-11-02T00:30:03;101516.91;;;18.46;49.64
70248;BME280;57641;51.416;5.506;2022-11-02T00:32:29;101505.38;;;18.52;49.71
70248;BME280;57641;51.416;5.506;2022-11-02T00:34:54;101512.84;;;18.35;49.55
70248;BME280;57641;51.416;5.506;2022-11-02T00:37:20;101506.16;;;18.31;49.98
70248;BME280;57641;51.416;5.506;2022-11-02T00:39:45;101505.16;;;18.18;50.40
70248;BME280;57641;51.416;5.506;2022-11-02T00:42:11;101511.81;;;18.36;50.27
70248;BME280;57641;51.416;5.506;2022-11-02T00:44:36;101516.38;;;18.36;50.11
70248;BME280;57641;51.416;5.506;2022-11-02T00:47:01;101522.88;;;18.41;50.23
70248;BME280;57641;51.416;5.506;2022-11-02T00:49:27;101508.66;;;18.33;50.36
70248;BME280;57641;51.416;5.506;2022-11-02T00:51:52;101521.50;;;18.31;50.20
70248;BME280;57641;51.416;5.506;2022-11-02T00:54:18;101520.56;;;18.38;50.40
70248;BME280;57641;51.416;5.506;2022-11-02T00:56:43;101523.28;;;18.38;49.74
70248;BME280;57641;51.416;5.506;2022-11-02T00:59:09;101521.41;;;18.39;50.05
70248;BME280;57641;51.416;5.506;2022-11-02T01:01:34;101526.44;;;18.27;49.91
70248;BME280;57641;51.416;5.506;2022-11-02T01:04:00;101525.78;;;18.25;50.15
70248;BME280;57641;51.416;5.506;2022-11-02T01:06:25;101523.81;;;18.19;50.35
70248;BME280;57641;51.416;5.506;2022-11-02T01:08:52;101527.75;;;18.17;50.59
70248;BME280;57641;51.416;5.506;2022-11-02T01:11:19;101532.41;;;18.23;50.07
70248;BME280;57641;51.416;5.506;2022-11-02T01:13:46;101543.94;;;18.31;49.79
70248;BME280;57641;51.416;5.506;2022-11-02T01:16:13;101540.97;;;18.11;49.87
70248;BME280;57641;51.416;5.506;2022-11-02T01:18:39;101545.63;;;18.03;49.36
70248;BME280;57641;51.416;5.506;2022-11-02T01:21:06;101538.72;;;18.00;49.42
70248;BME280;57641;51.416;5.506;2022-11-02T01:23:33;101537.59;;;17.80;49.36
70248;BME280;57641;51.416;5.506;2022-11-02T01:26:02;101544.56;;;17.75;49.23
70248;BME280;57641;51.416;5.506;2022-11-02T01:28:28;101551.44;;;17.77;48.58
70248;BME280;57641;51.416;5.506;2022-11-02T01:30:54;101543.56;;;17.90;48.38
70248;BME280;57641;51.416;5.506;2022-11-02T01:33:19;101541.91;;;17.66;48.38
70248;BME280;57641;51.416;5.506;2022-11-02T01:35:45;101543.44;;;17.84;47.94
70248;BME280;57641;51.416;5.506;2022-11-02T01:38:10;101528.09;;;17.69;47.94
70248;BME280;57641;51.416;5.506;2022-11-02T01:40:37;101544.56;;;17.75;47.85
70248;BME280;57641;51.416;5.506;2022-11-02T01:43:26;101547.44;;;17.73;47.51
70248;BME280;57641;51.416;5.506;2022-11-02T01:48:57;101545.94;;;17.70;47.87
70248;BME280;57641;51.416;5.506;2022-11-02T01:51:28;101552.06;;;17.64;48.04
70248;BME280;57641;51.416;5.506;2022-11-02T01:53:56;101555.78;;;17.63;48.20
70248;BME280;57641;51.416;5.506;2022-11-02T01:56:24;101550.97;;;17.51;49.45
70248;BME280;57641;51.416;5.506;2022-11-02T01:58:58;101559.34;;;17.79;48.70
70248;BME280;57641;51.416;5.506;2022-11-02T02:01:25;101560.75;;;17.75;48.57
70248;BME280;57641;51.416;5.506;2022-11-02T02:03:52;101563.31;;;17.68;48.86
70248;BME280;57641;51.416;5.506;2022-11-02T02:06:18;101567.72;;;17.84;48.43
70248;BME280;57641;51.416;5.506;2022-11-02T02:08:45;101572.09;;;17.85;49.05
70248;BME280;57641;51.416;5.506;2022-11-02T02:11:30;101565.72;;;17.63;49.83
70248;BME280;57641;51.416;5.506;2022-11-02T02:14:08;101561.56;;;17.52;50.20
70248;BME280;57641;51.416;5.506;2022-11-02T02:30:43;101578.41;;;17.31;50.62
70248;BME280;57641;51.416;5.506;2022-11-02T02:33:15;101576.25;;;17.27;50.61
70248;BME280;57641;51.416;5.506;2022-11-02T02:35:54;101577.56;;;17.31;50.49
70248;BME280;57641;51.416;5.506;2022-11-02T02:38:27;101586.22;;;17.49;50.23
70248;BME280;57641;51.416;5.506;2022-11-02T02:41:37;101569.63;;;17.38;49.62
70248;BME280;57641;51.416;5.506;2022-11-02T02:44:07;101585.53;;;17.02;50.73
70248;BME280;57641;51.416;5.506;2022-11-02T02:49:00;101571.09;;;17.40;49.70
70248;BME280;57641;51.416;5.506;2022-11-02T02:51:28;101578.06;;;17.12;50.41
70248;BME280;57641;51.416;5.506;2022-11-02T02:54:14;101575.97;;;17.22;49.91
70248;BME280;57641;51.416;5.506;2022-11-02T02:56:42;101589.47;;;17.14;50.13
70248;BME280;57641;51.416;5.506;2022-11-02T03:01:50;101595.66;;;17.22;49.57
70248;BME280;57641;51.416;5.506;2022-11-02T03:04:17;101593.97;;;17.21;50.02
70248;BME280;57641;51.416;5.506;2022-11-02T03:06:47;101593.00;;;17.14;50.03
70248;BME280;57641;51.416;5.506;2022-11-02T03:09:33;101592.41;;;17.04;49.99
70248;BME280;57641;51.416;5.506;2022-11-02T03:12:05;101598.47;;;17.29;49.64
70248;BME280;57641;51.416;5.506;2022-11-02T03:17:28;101598.78;;;17.03;50.11
70248;BME280;57641;51.416;5.506;2022-11-02T03:23:09;101606.38;;;17.08;49.76
70248;BME280;57641;51.416;5.506;2022-11-02T03:28:16;101606.72;;;17.05;50.10
70248;BME280;57641;51.416;5.506;2022-11-02T03:30:48;101621.41;;;16.94;50.28
70248;BME280;57641;51.416;5.506;2022-11-02T03:33:26;101618.28;;;17.13;49.81
70248;BME280;57641;51.416;5.506;2022-11-02T03:36:08;101628.00;;;16.92;50.14
70248;BME280;57641;51.416;5.506;2022-11-02T03:38:58;101634.16;;;16.69;50.88
70248;BME280;57641;51.416;5.506;2022-11-02T03:41:25;101626.81;;;16.94;50.05
70248;BME280;57641;51.416;5.506;2022-11-02T03:43:56;101631.72;;;16.91;50.42
70248;BME280;57641;51.416;5.506;2022-11-02T03:46:24;101620.44;;;16.87;50.42
70248;BME280;57641;51.416;5.506;2022-11-02T03:48:52;101629.31;;;16.96;50.17
70248;BME280;57641;51.416;5.506;2022-11-02T03:51:22;101638.97;;;16.82;50.41
70248;BME280;57641;51.416;5.506;2022-11-02T03:54:04;101645.34;;;16.89;50.93
70248;BME280;57641;51.416;5.506;2022-11-02T03:56:40;101642.41;;;17.07;51.40
70248;BME280;57641;51.416;5.506;2022-11-02T03:59:08;101648.72;;;16.91;51.80
70248;BME280;57641;51.416;5.506;2022-11-02T04:01:40;101642.50;;;16.82;51.75
70248;BME280;57641;51.416;5.506;2022-11-02T04:04:06;101656.34;;;16.79;51.94
70248;BME280;57641;51.416;5.506;2022-11-02T04:06:32;101656.84;;;16.75;52.29
70248;BME280;57641;51.416;5.506;2022-11-02T04:08:58;101667.88;;;16.96;50.96
70248;BME280;57641;51.416;5.506;2022-11-02T04:11:24;101684.41;;;16.85;51.74
70248;BME280;57641;51.416;5.506;2022-11-02T04:14:25;101673.91;;;16.59;51.72
70248;BME280;57641;51.416;5.506;2022-11-02T04:17:04;101677.72;;;16.81;51.10
70248;BME280;57641;51.416;5.506;2022-11-02T04:19:48;101672.31;;;16.81;51.59
70248;BME280;57641;51.416;5.506;2022-11-02T04:22:14;101673.97;;;16.82;51.38
70248;BME280;57641;51.416;5.506;2022-11-02T04:24:58;101677.56;;;16.58;52.19
70248;BME280;57641;51.416;5.506;2022-11-02T04:27:47;101700.63;;;16.61;52.08
70248;BME280;57641;51.416;5.506;2022-11-02T04:30:15;101689.19;;;16.67;51.82
70248;BME280;57641;51.416;5.506;2022-11-02T04:32:43;101700.94;;;16.74;51.77
70248;BME280;57641;51.416;5.506;2022-11-02T04:35:33;101700.59;;;16.77;51.43
70248;BME280;57641;51.416;5.506;2022-11-02T04:37:59;101696.69;;;16.87;50.83
70248;BME280;57641;51.416;5.506;2022-11-02T04:40:44;101699.91;;;16.83;51.34
70248;BME280;57641;51.416;5.506;2022-11-02T04:43:10;101704.16;;;16.61;51.68
70248;BME280;57641;51.416;5.506;2022-11-02T04:45:36;101704.69;;;16.65;51.68
70248;BME280;57641;51.416;5.506;2022-11-02T04:48:06;101710.88;;;16.57;51.84
70248;BME280;57641;51.416;5.506;2022-11-02T04:50:32;101725.38;;;16.64;51.72
70248;BME280;57641;51.416;5.506;2022-11-02T04:53:00;101730.56;;;16.66;51.57
70248;BME280;57641;51.416;5.506;2022-11-02T04:55:27;101732.47;;;16.65;51.45
70248;BME280;57641;51.416;5.506;2022-11-02T04:57:53;101753.44;;;16.78;51.10
70248;BME280;57641;51.416;5.506;2022-11-02T05:00:20;101742.19;;;16.58;51.86
70248;BME280;57641;51.416;5.506;2022-11-02T05:02:49;101745.19;;;16.55;52.13
70248;BME280;57641;51.416;5.506;2022-11-02T05:05:16;101753.47;;;16.54;52.22
70248;BME280;57641;51.416;5.506;2022-11-02T05:07:42;101757.84;;;16.46;51.52
70248;BME280;57641;51.416;5.506;2022-11-02T05:10:08;101763.59;;;16.60;51.40
70248;BME280;57641;51.416;5.506;2022-11-02T05:12:34;101766.78;;;16.63;50.88
70248;BME280;57641;51.416;5.506;2022-11-02T05:15:00;101756.84;;;16.47;51.66
70248;BME280;57641;51.416;5.506;2022-11-02T05:17:25;101760.19;;;16.58;50.94
70248;BME280;57641;51.416;5.506;2022-11-02T05:19:51;101759.38;;;16.49;51.30
70248;BME280;57641;51.416;5.506;2022-11-02T05:22:16;101766.75;;;16.47;51.67
70248;BME280;57641;51.416;5.506;2022-11-02T05:24:42;101786.75;;;16.44;51.56
70248;BME280;57641;51.416;5.506;2022-11-02T05:27:08;101783.59;;;16.49;51.40
70248;BME280;57641;51.416;5.506;2022-11-02T05:29:34;101780.06;;;16.32;52.18
70248;BME280;57641;51.416;5.506;2022-11-02T05:32:00;101795.72;;;16.61;50.59
70248;BME280;57641;51.416;5.506;2022-11-02T05:34:25;101795.84;;;16.19;51.39
70248;BME280;57641;51.416;5.506;2022-11-02T05:36:51;101806.97;;;16.32;51.62
70248;BME280;57641;51.416;5.506;2022-11-02T05:39:16;101816.88;;;16.40;50.99
70248;BME280;57641;51.416;5.506;2022-11-02T05:41:42;101810.19;;;16.44;51.08
70248;BME280;57641;51.416;5.506;2022-11-02T05:44:07;101826.81;;;16.31;51.10
70248;BME280;57641;51.416;5.506;2022-11-02T05:46:33;101818.75;;;16.47;50.82
70248;BME280;57641;51.416;5.506;2022-11-02T05:48:58;101825.31;;;16.53;50.51
70248;BME280;57641;51.416;5.506;2022-11-02T05:51:24;101824.31;;;16.54;50.61
70248;BME280;57641;51.416;5.506;2022-11-02T05:53:49;101820.75;;;16.45;50.77
70248;BME280;57641;51.416;5.506;2022-11-02T05:56:15;101836.06;;;16.45;49.97
70248;BME280;57641;51.416;5.506;2022-11-02T05:58:40;101833.50;;;16.19;51.46
70248;BME280;57641;51.416;5.506;2022-11-02T06:01:06;101846.47;;;16.24;51.74
70248;BME280;57641;51.416;5.506;2022-11-02T06:03:32;101849.69;;;16.35;51.47
70248;BME280;57641;51.416;5.506;2022-11-02T06:06:00;101858.25;;;16.31;51.52
70248;BME280;57641;51.416;5.506;2022-11-02T06:08:26;101858.59;;;16.36;51.44
70248;BME280;57641;51.416;5.506;2022-11-02T06:10:53;101862.97;;;16.45;51.39
70248;BME280;57641;51.416;5.506;2022-11-02T06:13:19;101859.59;;;16.35;51.23
70248;BME280;57641;51.416;5.506;2022-11-02T06:15:44;101871.06;;;16.37;51.39
70248;BME280;57641;51.416;5.506;2022-11-02T06:18:10;101868.53;;;16.27;51.57
70248;BME280;57641;51.416;5.506;2022-11-02T06:20:35;101877.09;;;16.31;52.05
70248;BME280;57641;51.416;5.506;2022-11-02T06:23:01;101873.56;;;16.22;52.07
70248;BME280;57641;51.416;5.506;2022-11-02T06:25:26;101873.41;;;16.32;51.95
70248;BME280;57641;51.416;5.506;2022-11-02T06:27:53;101879.97;;;16.37;51.83
70248;BME280;57641;51.416;5.506;2022-11-02T06:30:22;101890.91;;;16.36;51.39
70248;BME280;57641;51.416;5.506;2022-11-02T06:32:50;101891.22;;;16.25;51.74
70248;BME280;57641;51.416;5.506;2022-11-02T06:35:17;101903.53;;;16.43;51.27
70248;BME280;57641;51.416;5.506;2022-11-02T06:37:44;101906.34;;;16.26;51.35
70248;BME280;57641;51.416;5.506;2022-11-02T06:40:10;101905.19;;;16.28;51.36
70248;BME280;57641;51.416;5.506;2022-11-02T06:42:37;101919.06;;;16.08;51.59
70248;BME280;57641;51.416;5.506;2022-11-02T06:45:03;101926.03;;;16.26;51.81
70248;BME280;57641;51.416;5.506;2022-11-02T06:47:33;101932.13;;;16.36;51.33
70248;BME280;57641;51.416;5.506;2022-11-02T06:49:59;101934.19;;;16.00;52.44
70248;BME280;57641;51.416;5.506;2022-11-02T06:52:28;101942.06;;;15.94;52.42
70248;BME280;57641;51.416;5.506;2022-11-02T06:54:54;101952.75;;;16.12;52.13
70248;BME280;57641;51.416;5.506;2022-11-02T06:57:20;101959.13;;;16.19;51.33
70248;BME280;57641;51.416;5.506;2022-11-02T06:59:45;101960.63;;;16.13;51.45
70248;BME280;57641;51.416;5.506;2022-11-02T07:02:11;101967.56;;;16.24;51.75
70248;BME280;57641;51.416;5.506;2022-11-02T07:04:37;101976.13;;;16.19;51.79
70248;BME280;57641;51.416;5.506;2022-11-02T07:07:02;101984.75;;;16.23;51.39
70248;BME280;57641;51.416;5.506;2022-11-02T07:09:27;101991.41;;;16.19;52.13
70248;BME280;57641;51.416;5.506;2022-11-02T07:11:53;101998.41;;;16.03;51.83
70248;BME280;57641;51.416;5.506;2022-11-02T07:14:19;101998.28;;;16.13;52.04
70248;BME280;57641;51.416;5.506;2022-11-02T07:16:44;102011.59;;;16.15;52.08
70248;BME280;57641;51.416;5.506;2022-11-02T07:19:10;102018.97;;;16.13;52.35
70248;BME280;57641;51.416;5.506;2022-11-02T07:21:35;102014.84;;;16.26;51.79
70248;BME280;57641;51.416;5.506;2022-11-02T07:24:01;102030.94;;;16.18;51.78
70248;BME280;57641;51.416;5.506;2022-11-02T07:26:27;102038.84;;;16.12;51.70
70248;BME280;57641;51.416;5.506;2022-11-02T07:28:52;102040.81;;;16.10;52.35
70248;BME280;57641;51.416;5.506;2022-11-02T07:31:18;102049.38;;;16.05;52.52
70248;BME280;57641;51.416;5.506;2022-11-02T07:33:43;102040.03;;;16.17;52.55
70248;BME280;57641;51.416;5.506;2022-11-02T07:36:09;102034.81;;;16.16;52.29
70248;BME280;57641;51.416;5.506;2022-11-02T07:38:35;102050.44;;;16.12;52.63
70248;BME280;57641;51.416;5.506;2022-11-02T07:41:00;102046.41;;;16.16;52.49
70248;BME280;57641;51.416;5.506;2022-11-02T07:43:26;102050.47;;;16.20;52.38
70248;BME280;57641;51.416;5.506;2022-11-02T07:45:53;102045.28;;;16.27;52.03
70248;BME280;57641;51.416;5.506;2022-11-02T07:48:19;102053.38;;;16.27;52.58
70248;BME280;57641;51.416;5.506;2022-11-02T07:50:45;102063.19;;;16.10;53.04
70248;BME280;57641;51.416;5.506;2022-11-02T07:53:11;102061.66;;;16.33;52.53
70248;BME280;57641;51.416;5.506;2022-11-02T07:55:38;102064.50;;;16.32;53.04
70248;BME280;57641;51.416;5.506;2022-11-02T07:58:05;102071.56;;;16.33;52.71
70248;BME280;57641;51.416;5.506;2022-11-02T08:00:36;102072.44;;;16.41;52.63
70248;BME280;57641;51.416;5.506;2022-11-02T08:03:04;102074.63;;;16.46;52.63
70248;BME280;57641;51.416;5.506;2022-11-02T08:05:32;102077.03;;;16.57;52.33
70248;BME280;57641;51.416;5.506;2022-11-02T08:07:59;102078.38;;;16.53;52.36
70248;BME280;57641;51.416;5.506;2022-11-02T08:10:26;102080.06;;;16.54;52.66
70248;BME280;57641;51.416;5.506;2022-11-02T08:12:52;102083.16;;;16.67;52.70
70248;BME280;57641;51.416;5.506;2022-11-02T08:15:18;102077.44;;;16.62;52.41
70248;BME280;57641;51.416;5.506;2022-11-02T08:17:43;102086.59;;;16.43;52.96
70248;BME280;57641;51.416;5.506;2022-11-02T08:20:09;102082.41;;;16.49;53.07
70248;BME280;57641;51.416;5.506;2022-11-02T08:22:38;102086.81;;;16.58;52.94
70248;BME280;57641;51.416;5.506;2022-11-02T08:25:05;102092.47;;;16.39;53.33
70248;BME280;57641;51.416;5.506;2022-11-02T08:27:32;102090.59;;;16.39;53.69
70248;BME280;57641;51.416;5.506;2022-11-02T08:29:57;102102.88;;;16.42;53.32
70248;BME280;57641;51.416;5.506;2022-11-02T08:32:22;102096.28;;;16.62;53.07
70248;BME280;57641;51.416;5.506;2022-11-02T08:34:48;102101.84;;;16.35;53.74
70248;BME280;57641;51.416;5.506;2022-11-02T08:37:13;102103.97;;;16.57;53.30
70248;BME280;57641;51.416;5.506;2022-11-02T08:39:39;102102.34;;;16.64;52.95
70248;BME280;57641;51.416;5.506;2022-11-02T08:42:05;102106.28;;;16.44;53.50
70248;BME280;57641;51.416;5.506;2022-11-02T08:44:31;102103.34;;;16.63;52.84
70248;BME280;57641;51.416;5.506;2022-11-02T08:46:56;102103.97;;;16.57;52.95
70248;BME280;57641;51.416;5.506;2022-11-02T08:49:22;102108.63;;;16.47;53.21
70248;BME280;57641;51.416;5.506;2022-11-02T08:51:47;102109.75;;;16.62;53.13
70248;BME280;57641;51.416;5.506;2022-11-02T08:54:13;102110.09;;;16.67;53.01
70248;BME280;57641;51.416;5.506;2022-11-02T08:56:39;102115.53;;;16.75;52.81
70248;BME280;57641;51.416;5.506;2022-11-02T08:59:04;102125.63;;;16.73;52.26
70248;BME280;57641;51.416;5.506;2022-11-02T09:01:30;102131.34;;;16.70;52.38
70248;BME280;57641;51.416;5.506;2022-11-02T09:03:56;102122.41;;;16.70;52.56
70248;BME280;57641;51.416;5.506;2022-11-02T09:06:21;102133.41;;;16.93;52.37
70248;BME280;57641;51.416;5.506;2022-11-02T09:08:47;102129.22;;;16.90;51.97
70248;BME280;57641;51.416;5.506;2022-11-02T09:11:12;102131.19;;;16.80;52.10
70248;BME280;57641;51.416;5.506;2022-11-02T09:13:38;102126.63;;;16.72;52.27
70248;BME280;57641;51.416;5.506;2022-11-02T09:16:04;102129.66;;;16.77;52.54
70248;BME280;57641;51.416;5.506;2022-11-02T09:18:30;102131.91;;;16.90;52.37
70248;BME280;57641;51.416;5.506;2022-11-02T09:20:56;102127.97;;;16.76;52.11
70248;BME280;57641;51.416;5.506;2022-11-02T09:23:22;102137.25;;;16.82;51.96
70248;BME280;57641;51.416;5.506;2022-11-02T09:25:48;102134.59;;;16.90;51.95
70248;BME280;57641;51.416;5.506;2022-11-02T09:28:15;102144.16;;;16.51;52.93
70248;BME280;57641;51.416;5.506;2022-11-02T09:30:41;102138.09;;;16.82;52.62
70248;BME280;57641;51.416;5.506;2022-11-02T09:33:07;102140.41;;;17.11;51.94
70248;BME280;57641;51.416;5.506;2022-11-02T09:35:38;102145.97;;;17.18;51.41
70248;BME280;57641;51.416;5.506;2022-11-02T09:38:04;102149.88;;;17.23;51.23
70248;BME280;57641;51.416;5.506;2022-11-02T09:40:38;102143.53;;;16.99;51.30
70248;BME280;57641;51.416;5.506;2022-11-02T09:45:36;102149.81;;;17.15;51.13
70248;BME280;57641;51.416;5.506;2022-11-02T09:48:16;102150.47;;;17.09;50.92
70248;BME280;57641;51.416;5.506;2022-11-02T09:50:54;102148.13;;;17.14;50.88
70248;BME280;57641;51.416;5.506;2022-11-02T09:53:28;102154.66;;;17.04;50.76
70248;BME280;57641;51.416;5.506;2022-11-02T09:55:58;102148.44;;;16.95;50.78
70248;BME280;57641;51.416;5.506;2022-11-02T09:58:31;102157.59;;;17.26;50.53
70248;BME280;57641;51.416;5.506;2022-11-02T10:06:34;102156.69;;;17.60;49.61
70248;BME280;57641;51.416;5.506;2022-11-02T10:09:11;102157.81;;;17.49;49.20
70248;BME280;57641;51.416;5.506;2022-11-02T10:11:48;102160.22;;;17.68;49.92
70248;BME280;57641;51.416;5.506;2022-11-02T10:14:23;102162.06;;;17.68;49.18
70248;BME280;57641;51.416;5.506;2022-11-02T10:17:16;102167.31;;;17.78;49.03
70248;BME280;57641;51.416;5.506;2022-11-02T10:19:48;102174.38;;;17.62;48.70
70248;BME280;57641;51.416;5.506;2022-11-02T10:22:18;102178.44;;;17.75;48.86
70248;BME280;57641;51.416;5.506;2022-11-02T10:24:45;102170.88;;;17.86;48.48
70248;BME280;57641;51.416;5.506;2022-11-02T10:27:20;102170.66;;;17.71;47.68
70248;BME280;57641;51.416;5.506;2022-11-02T10:29:57;102168.84;;;17.80;47.31
70248;BME280;57641;51.416;5.506;2022-11-02T10:32:25;102184.34;;;17.78;46.85
70248;BME280;57641;51.416;5.506;2022-11-02T10:34:51;102184.50;;;17.93;46.82
70248;BME280;57641;51.416;5.506;2022-11-02T10:37:38;102182.47;;;17.95;46.81
70248;BME280;57641;51.416;5.506;2022-11-02T10:53:16;102188.00;;;18.50;45.51
70248;BME280;57641;51.416;5.506;2022-11-02T10:58:14;102194.09;;;18.60;44.72
70248;BME280;57641;51.416;5.506;2022-11-02T11:00:42;102208.41;;;18.52;43.42
70248;BME280;57641;51.416;5.506;2022-11-02T11:03:16;102209.44;;;18.35;44.47
70248;BME280;57641;51.416;5.506;2022-11-02T11:08:42;102190.88;;;18.48;44.79
70248;BME280;57641;51.416;5.506;2022-11-02T11:11:23;102200.53;;;18.10;45.31
70248;BME280;57641;51.416;5.506;2022-11-02T11:13:58;102199.44;;;18.52;44.31
70248;BME280;57641;51.416;5.506;2022-11-02T11:16:33;102201.66;;;18.48;44.39
70248;BME280;57641;51.416;5.506;2022-11-02T11:18:59;102188.19;;;18.24;44.17
70248;BME280;57641;51.416;5.506;2022-11-02T11:21:36;102203.84;;;18.53;43.73
70248;BME280;57641;51.416;5.506;2022-11-02T11:24:18;102202.31;;;18.67;44.21
70248;BME280;57641;51.416;5.506;2022-11-02T11:26:44;102200.66;;;18.66;43.95
70248;BME280;57641;51.416;5.506;2022-11-02T11:29:21;102195.34;;;18.80;43.50
70248;BME280;57641;51.416;5.506;2022-11-02T11:31:47;102200.75;;;18.80;43.52
70248;BME280;57641;51.416;5.506;2022-11-02T11:34:25;102189.50;;;19.08;43.47
70248;BME280;57641;51.416;5.506;2022-11-02T11:37:03;102186.34;;;18.96;43.83
70248;BME280;57641;51.416;5.506;2022-11-02T11:39:30;102179.97;;;19.20;44.38
70248;BME280;57641;51.416;5.506;2022-11-02T11:41:57;102173.09;;;19.09;43.09
70248;BME280;57641;51.416;5.506;2022-11-02T11:44:24;102178.81;;;19.14;43.35
70248;BME280;57641;51.416;5.506;2022-11-02T11:46:55;102169.56;;;19.09;43.18
70248;BME280;57641;51.416;5.506;2022-11-02T11:49:27;102177.78;;;18.84;43.07
70248;BME280;57641;51.416;5.506;2022-11-02T11:51:54;102167.19;;;19.06;43.29
70248;BME280;57641;51.416;5.506;2022-11-02T11:54:30;102179.78;;;18.90;43.49
70248;BME280;57641;51.416;5.506;2022-11-02T11:57:21;102173.47;;;19.06;43.71
70248;BME280;57641;51.416;5.506;2022-11-02T11:59:48;102189.59;;;18.83;43.89
70248;BME280;57641;51.416;5.506;2022-11-02T12:02:23;102195.53;;;18.79;43.98
70248;BME280;57641;51.416;5.506;2022-11-02T12:04:50;102204.66;;;18.78;44.57
70248;BME280;57641;51.416;5.506;2022-11-02T12:07:41;102187.78;;;18.76;44.77
70248;BME280;57641;51.416;5.506;2022-11-02T12:10:44;102190.50;;;18.68;45.15
70248;BME280;57641;51.416;5.506;2022-11-02T12:19:26;102164.31;;;18.68;45.93
70248;BME280;57641;51.416;5.506;2022-11-02T12:22:15;102158.38;;;18.73;45.65
70248;BME280;57641;51.416;5.506;2022-11-02T12:25:14;102158.22;;;18.74;45.03
70248;BME280;57641;51.416;5.506;2022-11-02T12:36:49;102148.97;;;19.08;45.32
70248;BME280;57641;51.416;5.506;2022-11-02T12:41:33;102141.16;;;18.82;45.30
70248;BME280;57641;51.416;5.506;2022-11-02T12:47:14;102135.13;;;19.03;45.13
70248;BME280;57641;51.416;5.506;2022-11-02T12:50:15;102120.59;;;19.26;44.98
70248;BME280;57641;51.416;5.506;2022-11-02T12:55:20;102123.16;;;19.28;45.26
70248;BME280;57641;51.416;5.506;2022-11-02T12:57:48;102123.09;;;19.05;44.66
70248;BME280;57641;51.416;5.506;2022-11-02T13:00:19;102136.06;;;19.18;44.61
70248;BME280;57641;51.416;5.506;2022-11-02T13:02:56;102114.22;;;19.19;44.86
70248;BME280;57641;51.416;5.506;2022-11-02T13:05:27;102114.56;;;19.24;44.49
70248;BME280;57641;51.416;5.506;2022-11-02T13:08:13;102115.28;;;19.18;44.46
70248;BME280;57641;51.416;5.506;2022-11-02T13:13:17;102109.69;;;19.42;44.29
70248;BME280;57641;51.416;5.506;2022-11-02T13:15:45;102106.75;;;19.52;43.56
70248;BME280;57641;51.416;5.506;2022-11-02T13:18:18;102105.81;;;19.45;43.94
70248;BME280;57641;51.416;5.506;2022-11-02T13:20:51;102104.50;;;19.33;43.32
70248;BME280;57641;51.416;5.506;2022-11-02T13:23:29;102099.28;;;19.31;43.36
70248;BME280;57641;51.416;5.506;2022-11-02T13:26:01;102094.88;;;19.30;43.68
70248;BME280;57641;51.416;5.506;2022-11-02T13:29:00;102089.88;;;19.19;44.60
70248;BME280;57641;51.416;5.506;2022-11-02T13:31:37;102092.38;;;19.29;44.96
70248;BME280;57641;51.416;5.506;2022-11-02T13:34:10;102081.97;;;19.40;44.84
70248;BME280;57641;51.416;5.506;2022-11-02T13:36:40;102087.44;;;19.10;44.85
70248;BME280;57641;51.416;5.506;2022-11-02T13:39:16;102083.34;;;19.36;44.73
70248;BME280;57641;51.416;5.506;2022-11-02T13:47:37;102084.19;;;19.37;44.66
70248;BME280;57641;51.416;5.506;2022-11-02T13:50:10;102078.66;;;19.08;44.76
70248;BME280;57641;51.416;5.506;2022-11-02T13:52:57;102074.16;;;19.23;44.33
70248;BME280;57641;51.416;5.506;2022-11-02T13:55:32;102077.34;;;19.26;44.47
70248;BME280;57641;51.416;5.506;2022-11-02T13:58:03;102076.25;;;19.35;43.44
70248;BME280;57641;51.416;5.506;2022-11-02T14:00:43;102078.16;;;19.35;43.12
70248;BME280;57641;51.416;5.506;2022-11-02T14:03:16;102072.19;;;19.39;43.47
70248;BME280;57641;51.416;5.506;2022-11-02T14:05:56;102071.50;;;19.37;42.74
70248;BME280;57641;51.416;5.506;2022-11-02T14:08:38;102060.31;;;19.49;43.01
70248;BME280;57641;51.416;5.506;2022-11-02T14:16:44;102055.47;;;19.36;43.15
70248;BME280;57641;51.416;5.506;2022-11-02T14:21:44;102058.06;;;19.29;43.50
70248;BME280;57641;51.416;5.506;2022-11-02T14:34:48;102057.69;;;18.87;43.39
70248;BME280;57641;51.416;5.506;2022-11-02T14:47:59;102046.94;;;19.02;44.21
70248;BME280;57641;51.416;5.506;2022-11-02T14:50:26;102056.19;;;19.07;44.32
70248;BME280;57641;51.416;5.506;2022-11-02T14:52:59;102043.16;;;19.11;44.35
70248;BME280;57641;51.416;5.506;2022-11-02T14:55:28;102042.69;;;19.07;44.03
70248;BME280;57641;51.416;5.506;2022-11-02T14:58:06;102041.84;;;19.07;44.23
70248;BME280;57641;51.416;5.506;2022-11-02T15:03:28;102038.28;;;18.83;43.74
70248;BME280;57641;51.416;5.506;2022-11-02T15:06:05;102038.28;;;18.83;43.05